Fairview, KY

1:45 PM CDT on July 25, 2016 (GMT -0500)
Coxmill rd | | Change Station

Elev 554 ft 36.85 °N, 87.51 °W | Updated 17 seconds ago

Partly Cloudy
Partly Cloudy
92.7 °F
Feels Like 111 °F
N
1.0
Wind Variable Wind from ESE
Gusts 4.0 mph

Today
High -- | Low -- °F
--% Chance of Precip.
Yesterday
High -- | Low -- °F
Precip. -- in
Pressure 30.00 in
Visibility 10.0 miles
Clouds Few 11000 ft
Heat Index 111 °F
Dew Point 80 °F
Humidity 66%
Rainfall 0.00 in
Snow Depth Not available.
5:50 AM 8:02 PM
Waning Gibbous, 63% visible
METAR KHOP 251758Z AUTO 23008KT 10SM FEW110 33/25 A3001 RMK AO2 SLP157 T03260245 10329 20255 58006
Pressure 30.00 in
Visibility 10.0 miles
Clouds Few 11000 ft
Heat Index 111 °F
Dew Point 80 °F
Humidity 66%
Rainfall 0.00 in
Snow Depth Not available.
5:50 AM 8:02 PM
Waning Gibbous, 63% visible
METAR KHOP 251758Z AUTO 23008KT 10SM FEW110 33/25 A3001 RMK AO2 SLP157 T03260245 10329 20255 58006
Record highs are possible for parts of the Northeast Monday and Tuesday, as parts of the central U.S. take a little breather from the worst of summer's dog day heat.

Expansive high pressure in the upper atmosphere will focus on parts of the East and West this week, sending heat indices well into the triple digits from the Mid-Atlantic states into the South.

10-Day Weather Forecast

Almanac

Astronomy

Jul. 25, 2016 Rise Set
Actual Time
Civil Twilight
Nautical Twilight
Astronomical Twilight
Moon
Length of Visible Light
Length of Day
Tomorrow will be .
, % of the Moon is Illuminated

Today's Extremes

State Highs State Lows

Community

WunderPhotos

Upload Photos

1,927,370 photos uploaded!

WunderBlog® & News

Nearby

Air Quality

  Air Quality AQ Index Pollutant
Not available.

Snow Depth

Station Depth Elevation

Earthquake Activity

City Distance Mag. Time & Date
Minimum magnitude displayed is 2.5.

Coastal Water Temperatures

Place Temperature

Stations

Nearby Weather Stations

Station Location Temp. Windchill Dew Point Humidity Wind Precip. Elev Updated Type
                   

Watches & Warnings

There are currently no watches in effect.